createdAt,value
2018-09-23T00:01:10.896Z,1.83
2018-09-23T00:03:38.061Z,1.83
2018-09-23T00:06:05.255Z,1.73
2018-09-23T00:08:32.410Z,1.57
2018-09-23T00:10:59.734Z,1.37
2018-09-23T00:13:27.033Z,1.70
2018-09-23T00:15:54.296Z,1.50
2018-09-23T00:18:21.439Z,1.70
2018-09-23T00:20:48.715Z,1.73
2018-09-23T00:23:15.946Z,2.10
2018-09-23T00:25:43.031Z,1.40
2018-09-23T00:28:10.248Z,1.50
2018-09-23T00:30:37.444Z,1.67
2018-09-23T00:33:04.590Z,1.93
2018-09-23T00:35:31.719Z,1.70
2018-09-23T00:37:58.847Z,2.50
2018-09-23T00:40:26.247Z,1.73
2018-09-23T00:42:53.358Z,1.90
2018-09-23T00:45:20.465Z,1.90
2018-09-23T00:47:47.633Z,2.67
2018-09-23T00:50:15.392Z,1.83
2018-09-23T00:52:42.553Z,2.00
2018-09-23T00:55:09.699Z,2.00
2018-09-23T00:57:36.821Z,1.70
2018-09-23T01:00:04.880Z,1.97
2018-09-23T01:02:32.006Z,1.70
2018-09-23T01:04:59.136Z,1.40
2018-09-23T01:07:26.304Z,1.60
2018-09-23T01:09:53.435Z,2.20
2018-09-23T01:12:20.687Z,1.97
2018-09-23T01:14:47.864Z,2.03
2018-09-23T01:17:15.071Z,2.00
2018-09-23T01:19:42.206Z,1.60
2018-09-23T01:22:09.332Z,1.60
2018-09-23T01:24:36.527Z,2.37
2018-09-23T01:27:03.650Z,1.70
2018-09-23T01:29:30.795Z,1.47
2018-09-23T01:31:58.021Z,2.20
2018-09-23T01:34:25.151Z,1.70
2018-09-23T01:36:52.343Z,1.50
2018-09-23T01:39:19.453Z,1.70
2018-09-23T01:41:46.647Z,1.93
2018-09-23T01:44:13.751Z,1.70
2018-09-23T01:46:40.906Z,1.90
2018-09-23T01:49:08.121Z,1.63
2018-09-23T01:51:35.268Z,1.60
2018-09-23T01:54:02.394Z,2.23
2018-09-23T01:56:29.507Z,1.80
2018-09-23T01:58:56.606Z,1.77
2018-09-23T02:01:23.745Z,1.80
2018-09-23T02:03:50.950Z,2.00
2018-09-23T02:06:18.133Z,2.20
2018-09-23T02:08:45.238Z,1.90
2018-09-23T02:11:12.366Z,1.80
2018-09-23T02:13:39.542Z,1.80
2018-09-23T02:16:06.847Z,2.83
2018-09-23T02:18:34.026Z,2.10
2018-09-23T02:21:01.224Z,1.80
2018-09-23T02:23:28.358Z,2.10
2018-09-23T02:25:55.510Z,1.90
2018-09-23T02:28:22.702Z,2.10
2018-09-23T02:30:49.802Z,1.90
2018-09-23T02:33:17.034Z,2.20
2018-09-23T02:35:44.351Z,2.20
2018-09-23T02:38:11.507Z,1.67
2018-09-23T02:40:38.631Z,2.00
2018-09-23T02:43:05.827Z,1.80
2018-09-23T02:45:32.935Z,1.90
2018-09-23T02:48:00.170Z,1.77
2018-09-23T02:50:27.338Z,2.80
2018-09-23T02:52:54.575Z,2.07
2018-09-23T02:55:21.690Z,2.43
2018-09-23T02:57:48.840Z,2.20
2018-09-23T03:00:16.011Z,2.37
2018-09-23T03:02:43.190Z,2.10
2018-09-23T03:05:11.035Z,2.27
2018-09-23T03:07:38.610Z,2.40
2018-09-23T03:10:06.178Z,2.13
2018-09-23T03:12:33.232Z,2.10
2018-09-23T03:15:00.474Z,2.30
2018-09-23T03:17:27.559Z,2.40
2018-09-23T03:19:54.712Z,2.30
2018-09-23T03:22:21.865Z,2.33
2018-09-23T03:24:49.065Z,2.20
2018-09-23T03:27:16.181Z,2.93
2018-09-23T03:29:43.371Z,2.10
2018-09-23T03:32:10.505Z,2.37
2018-09-23T03:34:37.654Z,2.20
2018-09-23T03:37:04.761Z,2.13
2018-09-23T03:39:31.907Z,1.90
2018-09-23T03:41:59.026Z,2.17
2018-09-23T03:44:26.205Z,2.67
2018-09-23T03:46:53.320Z,2.20
2018-09-23T03:49:20.500Z,2.00
2018-09-23T03:51:47.657Z,2.23
2018-09-23T03:54:15.367Z,2.50
2018-09-23T03:56:43.338Z,2.00
2018-09-23T03:59:10.510Z,2.00
2018-09-23T04:01:37.898Z,2.47
2018-09-23T04:04:05.246Z,2.30
2018-09-23T04:06:32.502Z,2.17
2018-09-23T04:08:59.666Z,2.30
2018-09-23T04:11:26.811Z,2.20
2018-09-23T04:13:54.229Z,2.07
2018-09-23T04:16:21.481Z,2.03
2018-09-23T04:18:48.637Z,2.17
2018-09-23T04:21:15.803Z,2.20
2018-09-23T04:23:44.293Z,1.90
2018-09-23T04:26:11.466Z,2.70
2018-09-23T04:28:38.592Z,2.17
2018-09-23T04:31:05.810Z,2.43
2018-09-23T04:33:32.953Z,2.40
2018-09-23T04:36:00.144Z,2.30
2018-09-23T04:38:27.274Z,2.23
2018-09-23T04:40:54.528Z,2.40
2018-09-23T04:43:21.630Z,2.50
2018-09-23T04:45:48.739Z,2.93
2018-09-23T04:48:15.881Z,2.90
2018-09-23T04:50:42.955Z,2.00
2018-09-23T04:53:10.332Z,2.40
2018-09-23T04:55:37.460Z,2.30
2018-09-23T04:58:04.583Z,2.43
2018-09-23T05:00:31.712Z,2.60
2018-09-23T05:02:58.839Z,2.23
2018-09-23T05:05:26.017Z,2.57
2018-09-23T05:07:53.214Z,2.60
2018-09-23T05:10:20.671Z,2.53
2018-09-23T05:12:47.813Z,2.60
2018-09-23T05:15:14.949Z,2.50
2018-09-23T05:17:42.263Z,2.73
2018-09-23T05:20:09.417Z,2.63
2018-09-23T05:22:36.538Z,2.83
2018-09-23T05:25:03.718Z,2.37
2018-09-23T05:27:30.820Z,2.30
2018-09-23T05:29:58.174Z,2.20
2018-09-23T05:32:25.280Z,2.37
2018-09-23T05:34:52.447Z,2.70
2018-09-23T05:37:19.582Z,2.33
2018-09-23T05:39:46.703Z,2.40
2018-09-23T05:42:13.903Z,2.10
2018-09-23T05:44:41.047Z,2.57
2018-09-23T05:47:08.175Z,2.47
2018-09-23T05:49:35.463Z,2.07
2018-09-23T05:52:02.551Z,2.70
2018-09-23T05:54:29.694Z,2.60
2018-09-23T05:56:56.833Z,2.20
2018-09-23T05:59:23.931Z,2.30
2018-09-23T06:01:51.036Z,2.60
2018-09-23T06:04:18.181Z,2.47
2018-09-23T06:06:45.557Z,2.33
2018-09-23T06:09:12.686Z,2.30
2018-09-23T06:11:39.789Z,2.90
2018-09-23T06:14:06.882Z,2.50
2018-09-23T06:16:34.109Z,2.37
2018-09-23T06:19:01.342Z,2.50
2018-09-23T06:21:28.461Z,2.33
2018-09-23T06:23:55.713Z,2.90
2018-09-23T06:26:22.835Z,2.27
2018-09-23T06:28:49.940Z,2.53
2018-09-23T06:31:17.225Z,3.00
2018-09-23T06:33:44.370Z,2.60
2018-09-23T06:36:11.495Z,2.50
2018-09-23T06:38:38.584Z,2.13
2018-09-23T06:41:06.008Z,2.20
2018-09-23T06:43:33.107Z,2.30
2018-09-23T06:46:00.235Z,1.93
2018-09-23T06:48:27.437Z,2.40
2018-09-23T06:50:54.599Z,2.40
2018-09-23T06:53:21.808Z,2.40
2018-09-23T06:55:49.004Z,2.40
2018-09-23T06:58:16.123Z,2.03
2018-09-23T07:00:43.286Z,2.60
2018-09-23T07:03:10.462Z,2.10
2018-09-23T07:05:37.597Z,2.13
2018-09-23T07:08:04.724Z,2.20
2018-09-23T07:10:31.971Z,2.13
2018-09-23T07:12:59.031Z,2.10
2018-09-23T07:15:26.204Z,1.83
2018-09-23T07:17:53.405Z,2.50
2018-09-23T07:20:20.721Z,2.43
2018-09-23T07:22:47.873Z,1.90
2018-09-23T07:25:15.139Z,2.17
2018-09-23T07:27:42.332Z,2.00
2018-09-23T07:30:09.401Z,1.73
2018-09-23T07:32:36.661Z,1.87
2018-09-23T07:35:03.801Z,1.70
2018-09-23T07:37:31.005Z,1.90
2018-09-23T07:39:58.196Z,1.70
2018-09-23T07:42:25.622Z,1.67
2018-09-23T07:44:52.753Z,1.53
2018-09-23T07:47:19.866Z,1.80
2018-09-23T07:49:46.968Z,1.40
2018-09-23T07:52:14.166Z,1.40
2018-09-23T07:54:41.376Z,1.50
2018-09-23T07:57:08.488Z,1.60
2018-09-23T07:59:35.671Z,1.80
2018-09-23T08:02:02.838Z,1.50
2018-09-23T08:04:30.046Z,1.50
2018-09-23T08:06:57.205Z,1.57
2018-09-23T08:09:24.405Z,1.60
2018-09-23T08:11:51.531Z,1.67
2018-09-23T08:14:21.340Z,1.60
2018-09-23T08:16:48.181Z,1.60
2018-09-23T08:19:15.362Z,1.40
2018-09-23T08:21:42.562Z,1.60
2018-09-23T08:24:09.691Z,1.90
2018-09-23T08:26:37.160Z,1.47
2018-09-23T08:29:04.282Z,1.43
2018-09-23T08:31:31.653Z,1.47
2018-09-23T08:33:58.861Z,1.17
2018-09-23T08:36:25.999Z,1.30
2018-09-23T08:38:53.078Z,1.50
2018-09-23T08:41:20.235Z,1.57
2018-09-23T08:43:47.447Z,1.13
2018-09-23T08:46:14.599Z,1.13
2018-09-23T08:48:41.797Z,1.13
2018-09-23T08:51:08.930Z,1.37
2018-09-23T08:53:36.031Z,1.50
2018-09-23T08:56:03.507Z,1.30
2018-09-23T08:58:30.900Z,2.27
2018-09-23T09:00:58.031Z,1.60
2018-09-23T09:03:25.304Z,1.47
2018-09-23T09:05:52.517Z,1.70
2018-09-23T09:08:19.633Z,1.40
2018-09-23T09:10:46.835Z,1.50
2018-09-23T09:13:13.985Z,1.70
2018-09-23T09:15:41.400Z,1.60
2018-09-23T09:18:09.317Z,1.63
2018-09-23T09:20:36.427Z,1.43
2018-09-23T09:23:03.734Z,1.47
2018-09-23T09:25:30.898Z,1.57
2018-09-23T09:27:58.095Z,1.53
2018-09-23T09:30:25.190Z,1.10
2018-09-23T09:32:52.343Z,1.67
2018-09-23T09:35:19.547Z,1.30
2018-09-23T09:37:46.739Z,1.20
2018-09-23T09:40:13.892Z,1.43
2018-09-23T09:42:41.119Z,1.10
2018-09-23T09:45:08.346Z,1.30
2018-09-23T09:47:35.505Z,1.10
2018-09-23T09:50:02.851Z,1.30
2018-09-23T09:52:30.043Z,1.00
2018-09-23T09:54:57.158Z,1.10
2018-09-23T09:57:24.319Z,1.30
2018-09-23T09:59:51.578Z,1.33
2018-09-23T10:02:18.763Z,1.20
2018-09-23T10:04:45.952Z,1.33
2018-09-23T10:07:13.118Z,1.27
2018-09-23T10:09:40.301Z,1.30
2018-09-23T10:12:08.378Z,1.33
2018-09-23T10:14:35.600Z,1.57
2018-09-23T10:17:02.871Z,1.40
2018-09-23T10:19:30.037Z,1.50
2018-09-23T10:21:57.274Z,1.70
2018-09-23T10:24:24.563Z,1.27
2018-09-23T10:26:51.648Z,1.30
2018-09-23T10:29:18.857Z,1.37
2018-09-23T10:31:46.017Z,1.63
2018-09-23T10:34:13.224Z,1.60
2018-09-23T10:36:40.534Z,1.77
2018-09-23T10:39:08.774Z,1.20
2018-09-23T10:41:36.163Z,1.50
2018-09-23T10:44:03.570Z,1.30
2018-09-23T10:46:30.697Z,1.40
2018-09-23T10:48:57.964Z,1.20
2018-09-23T10:51:25.256Z,1.80
2018-09-23T10:53:52.410Z,1.50
2018-09-23T10:56:19.683Z,1.60
2018-09-23T10:58:46.882Z,1.70
2018-09-23T11:01:14.065Z,1.30
2018-09-23T11:03:41.323Z,1.70
2018-09-23T11:06:08.474Z,1.60
2018-09-23T11:08:35.948Z,1.50
2018-09-23T11:11:03.191Z,1.80
2018-09-23T11:13:30.341Z,1.60
2018-09-23T11:15:57.585Z,1.50
2018-09-23T11:18:24.841Z,1.27
2018-09-23T11:20:52.046Z,1.30
2018-09-23T11:23:19.263Z,1.27
2018-09-23T11:25:46.700Z,1.43
2018-09-23T11:28:13.914Z,1.30
2018-09-23T11:30:41.603Z,1.27
2018-09-23T11:33:08.774Z,1.50
2018-09-23T11:35:36.085Z,1.23
2018-09-23T11:38:03.325Z,1.10
2018-09-23T11:40:30.716Z,1.20
2018-09-23T11:42:58.023Z,1.20
2018-09-23T11:45:25.093Z,1.30
2018-09-23T11:47:52.360Z,1.30
2018-09-23T11:50:19.529Z,1.70
2018-09-23T11:52:46.874Z,1.30
2018-09-23T11:55:14.046Z,1.70
2018-09-23T11:57:41.384Z,1.20
2018-09-23T12:00:08.609Z,1.20
2018-09-23T12:02:35.844Z,1.10
2018-09-23T12:05:03.003Z,1.50
2018-09-23T12:07:30.452Z,1.10
2018-09-23T12:12:15.145Z,1.13
2018-09-23T12:14:42.257Z,1.40
2018-09-23T12:17:09.422Z,1.40
2018-09-23T12:19:36.650Z,1.17
2018-09-23T12:22:03.963Z,1.23
2018-09-23T12:24:31.300Z,1.10
2018-09-23T12:26:58.750Z,1.20
2018-09-23T12:29:26.042Z,1.40
2018-09-23T12:31:53.263Z,1.00
2018-09-23T12:34:20.570Z,1.17
2018-09-23T12:36:47.929Z,1.00
2018-09-23T12:39:15.223Z,1.13
2018-09-23T12:41:42.669Z,1.50
2018-09-23T12:44:10.377Z,1.00
2018-09-23T12:46:37.590Z,1.17
2018-09-23T12:49:04.946Z,1.40
2018-09-23T12:51:32.213Z,1.43
2018-09-23T12:53:59.555Z,1.20
2018-09-23T12:56:26.750Z,1.20
2018-09-23T12:58:54.076Z,1.17
2018-09-23T13:01:21.373Z,1.30
2018-09-23T13:03:48.750Z,1.23
2018-09-23T13:06:15.915Z,0.97
2018-09-23T13:08:43.111Z,1.13
2018-09-23T13:11:10.569Z,0.90
2018-09-23T13:13:37.773Z,1.27
2018-09-23T13:16:05.158Z,1.20
2018-09-23T13:18:32.416Z,1.20
2018-09-23T13:20:59.593Z,1.60
2018-09-23T13:23:26.879Z,1.10
2018-09-23T13:25:54.108Z,1.07
2018-09-23T13:28:21.399Z,1.33
2018-09-23T13:30:48.983Z,0.93
2018-09-23T13:33:16.218Z,1.40
2018-09-23T13:35:43.458Z,1.27
2018-09-23T13:38:10.612Z,1.30
2018-09-23T13:40:37.873Z,1.50
2018-09-23T13:43:05.074Z,1.47
2018-09-23T13:45:32.274Z,1.67
2018-09-23T13:47:59.499Z,1.30
2018-09-23T13:50:26.726Z,2.10
2018-09-23T13:52:53.939Z,2.37
2018-09-23T13:55:21.157Z,1.20
2018-09-23T13:57:48.410Z,1.90
2018-09-23T14:00:15.661Z,1.77
2018-09-23T14:02:42.886Z,1.60
2018-09-23T14:05:10.297Z,1.73
2018-09-23T14:07:37.536Z,1.33
2018-09-23T14:10:04.790Z,1.30
2018-09-23T14:12:32.027Z,1.00
2018-09-23T14:14:59.378Z,1.60
2018-09-23T14:17:26.683Z,1.10
2018-09-23T14:19:54.070Z,1.10
2018-09-23T14:22:21.475Z,1.80
2018-09-23T14:24:48.727Z,1.47
2018-09-23T14:27:15.949Z,1.60
2018-09-23T14:29:43.298Z,1.50
2018-09-23T14:32:10.574Z,1.00
2018-09-23T14:34:37.787Z,1.43
2018-09-23T14:37:05.259Z,2.13
2018-09-23T14:39:32.386Z,1.70
2018-09-23T14:41:59.654Z,1.47
2018-09-23T14:44:26.838Z,1.17
2018-09-23T14:46:54.051Z,1.50
2018-09-23T14:49:21.323Z,1.83
2018-09-23T14:51:48.518Z,1.87
2018-09-23T14:54:15.977Z,2.30
2018-09-23T14:56:43.103Z,0.40
2018-09-23T14:59:10.282Z,0.40
2018-09-23T15:01:37.535Z,0.40
2018-09-23T15:04:04.892Z,0.40
2018-09-23T15:06:32.103Z,0.40
2018-09-23T15:08:59.279Z,0.40
2018-09-23T15:11:26.813Z,0.40
2018-09-23T15:13:54.238Z,0.40
2018-09-23T15:16:21.407Z,2.93
2018-09-23T15:18:48.747Z,0.40
2018-09-23T15:21:16.003Z,0.40
2018-09-23T15:23:43.239Z,0.40
2018-09-23T15:26:10.511Z,0.40
2018-09-23T15:28:37.695Z,0.50
2018-09-23T15:31:05.007Z,0.40
2018-09-23T15:33:32.300Z,0.40
2018-09-23T15:35:59.888Z,0.40
2018-09-23T15:38:27.198Z,0.40
2018-09-23T15:40:54.467Z,0.40
2018-09-23T15:43:21.690Z,0.40
2018-09-23T15:45:48.938Z,0.40
2018-09-23T15:48:16.190Z,0.40
2018-09-23T15:50:43.502Z,0.40
2018-09-23T15:53:10.914Z,0.40
2018-09-23T15:55:38.160Z,0.40
2018-09-23T15:58:06.388Z,0.40
2018-09-23T16:00:33.829Z,0.40
2018-09-23T16:03:01.189Z,0.40
2018-09-23T16:05:28.517Z,0.40
2018-09-23T16:07:55.935Z,0.40
2018-09-23T16:10:23.159Z,0.40
2018-09-23T16:12:50.412Z,0.40
2018-09-23T16:15:17.609Z,0.40
2018-09-23T16:17:44.928Z,0.50
2018-09-23T16:20:12.295Z,0.40
2018-09-23T16:22:39.581Z,0.40
2018-09-23T16:25:06.826Z,0.40
2018-09-23T16:27:34.423Z,0.40
2018-09-23T16:30:01.628Z,0.40
2018-09-23T16:32:28.891Z,0.40
2018-09-23T16:34:57.266Z,0.40
2018-09-23T16:37:24.542Z,0.40
2018-09-23T16:39:51.713Z,0.40
2018-09-23T16:42:19.079Z,0.40
2018-09-23T16:44:46.335Z,0.40
2018-09-23T16:47:14.417Z,0.40
2018-09-23T16:49:47.527Z,0.40
2018-09-23T16:52:16.906Z,0.40
2018-09-23T16:54:52.147Z,0.40
2018-09-23T16:57:27.992Z,0.40
2018-09-23T17:00:06.009Z,0.40
2018-09-23T17:02:40.318Z,0.40
2018-09-23T17:05:13.920Z,0.40
2018-09-23T17:07:53.565Z,0.40
2018-09-23T17:10:28.900Z,2.93
2018-09-23T17:12:58.712Z,0.40
2018-09-23T17:15:33.236Z,0.40
2018-09-23T17:21:11.564Z,0.40
2018-09-23T17:23:42.550Z,0.40
2018-09-23T17:26:17.125Z,0.40
2018-09-23T17:28:49.294Z,0.40
2018-09-23T17:31:20.253Z,0.40
2018-09-23T17:33:59.057Z,0.40
2018-09-23T17:36:31.308Z,0.50
2018-09-23T17:38:59.192Z,0.40
2018-09-23T17:41:30.714Z,0.40
2018-09-23T17:44:00.557Z,0.40
2018-09-23T17:46:33.038Z,0.40
2018-09-23T17:49:01.278Z,0.40
2018-09-23T17:51:28.493Z,0.40
2018-09-23T17:53:55.811Z,0.40
2018-09-23T17:56:23.011Z,0.40
2018-09-23T17:58:50.276Z,0.40
2018-09-23T18:01:17.522Z,0.40
2018-09-23T18:03:44.866Z,0.40
2018-09-23T18:06:12.211Z,0.40
2018-09-23T18:08:39.497Z,0.40
2018-09-23T18:11:06.830Z,0.40
2018-09-23T18:13:34.079Z,0.60
2018-09-23T18:16:01.359Z,0.40
2018-09-23T18:18:28.641Z,0.40
2018-09-23T18:20:55.898Z,0.40
2018-09-23T18:23:23.279Z,0.40
2018-09-23T18:25:50.661Z,0.40
2018-09-23T18:28:17.957Z,0.40
2018-09-23T18:30:45.264Z,0.40
2018-09-23T18:33:12.637Z,0.40
2018-09-23T18:35:40.426Z,0.40
2018-09-23T18:38:07.855Z,0.40
2018-09-23T18:40:35.252Z,0.60
2018-09-23T18:43:02.860Z,0.83
2018-09-23T18:45:30.294Z,0.40
2018-09-23T18:47:57.935Z,0.40
2018-09-23T18:50:25.712Z,0.53
2018-09-23T18:52:58.716Z,0.40
2018-09-23T18:55:31.626Z,0.73
2018-09-23T18:57:59.535Z,0.40
2018-09-23T19:00:27.050Z,0.40
2018-09-23T19:02:54.496Z,0.40
2018-09-23T19:05:21.925Z,0.40
2018-09-23T19:07:49.804Z,0.40
2018-09-23T19:10:17.266Z,0.40
2018-09-23T19:12:49.398Z,0.40
2018-09-23T19:15:16.804Z,0.40
2018-09-23T19:17:44.304Z,0.40
2018-09-23T19:20:11.778Z,0.40
2018-09-23T19:22:44.804Z,0.40
2018-09-23T19:25:12.343Z,0.40
2018-09-23T19:27:40.667Z,0.40
2018-09-23T19:30:08.023Z,0.40
2018-09-23T19:32:35.600Z,0.40
2018-09-23T19:35:03.700Z,0.40
2018-09-23T19:37:31.178Z,0.40
2018-09-23T19:39:58.871Z,0.40
2018-09-23T19:42:26.340Z,0.40
2018-09-23T19:44:53.865Z,0.40
2018-09-23T19:47:21.223Z,0.50
2018-09-23T19:49:49.085Z,1.90
2018-09-23T19:52:16.774Z,0.40
2018-09-23T19:54:44.385Z,0.40
2018-09-23T19:57:11.772Z,0.40
2018-09-23T19:59:39.127Z,0.67
2018-09-23T20:02:06.536Z,0.40
2018-09-23T20:04:33.795Z,0.40
2018-09-23T20:07:01.749Z,0.40
2018-09-23T20:09:29.386Z,0.40
2018-09-23T20:11:56.683Z,0.40
2018-09-23T20:14:23.921Z,2.30
2018-09-23T20:16:51.207Z,1.67
2018-09-23T20:19:18.565Z,2.23
2018-09-23T20:21:45.811Z,2.00
2018-09-23T20:24:13.001Z,2.13
2018-09-23T20:26:40.306Z,2.57
2018-09-23T20:29:07.606Z,2.10
2018-09-23T20:31:34.833Z,1.60
2018-09-23T20:34:02.467Z,1.60
2018-09-23T20:36:29.667Z,1.50
2018-09-23T20:38:57.154Z,1.40
2018-09-23T20:41:24.341Z,1.53
2018-09-23T20:43:51.635Z,1.30
2018-09-23T20:46:19.118Z,1.60
2018-09-23T20:48:46.389Z,1.40
2018-09-23T20:51:13.669Z,1.30
2018-09-23T20:53:41.046Z,1.47
2018-09-23T20:56:08.249Z,1.73
2018-09-23T20:58:35.476Z,1.50
2018-09-23T21:01:02.860Z,1.10
2018-09-23T21:03:30.187Z,1.30
2018-09-23T21:05:57.463Z,1.40
2018-09-23T21:08:24.744Z,1.20
2018-09-23T21:10:52.014Z,1.30
2018-09-23T21:13:19.313Z,1.20
2018-09-23T21:15:46.647Z,1.17
2018-09-23T21:18:13.967Z,1.30
2018-09-23T21:20:41.185Z,1.40
2018-09-23T21:23:08.465Z,1.37
2018-09-23T21:25:35.808Z,1.33
2018-09-23T21:28:03.040Z,1.40
2018-09-23T21:30:30.610Z,1.40
2018-09-23T21:32:58.050Z,1.10
2018-09-23T21:35:25.310Z,1.30
2018-09-23T21:37:52.792Z,1.00
2018-09-23T21:40:20.125Z,1.10
2018-09-23T21:42:47.363Z,1.13
2018-09-23T21:45:14.659Z,1.10
2018-09-23T21:47:42.021Z,1.23
2018-09-23T21:50:09.234Z,1.10
2018-09-23T21:52:36.534Z,1.20
2018-09-23T21:55:03.857Z,1.10
2018-09-23T21:57:31.138Z,1.10
2018-09-23T21:59:59.178Z,1.00
2018-09-23T22:02:26.477Z,1.20
2018-09-23T22:04:53.792Z,1.30
2018-09-23T22:07:21.062Z,1.40
2018-09-23T22:09:48.484Z,1.20
2018-09-23T22:12:15.913Z,1.20
2018-09-23T22:14:43.258Z,1.17
2018-09-23T22:17:10.556Z,1.30
2018-09-23T22:19:37.897Z,1.80
2018-09-23T22:22:05.688Z,1.60
2018-09-23T22:24:32.967Z,1.33
2018-09-23T22:27:00.387Z,1.37
2018-09-23T22:29:27.747Z,1.53
2018-09-23T22:31:55.216Z,1.70
2018-09-23T22:34:22.479Z,1.43
2018-09-23T22:36:49.935Z,1.57
2018-09-23T22:39:17.187Z,1.50
2018-09-23T22:41:44.632Z,1.47
2018-09-23T22:44:12.291Z,1.50
2018-09-23T22:46:39.556Z,1.77
2018-09-23T22:49:06.896Z,1.43
2018-09-23T22:51:34.322Z,1.57
2018-09-23T22:54:01.606Z,1.50
2018-09-23T22:56:28.836Z,1.30
2018-09-23T22:58:56.325Z,1.60
2018-09-23T23:01:23.562Z,1.43
2018-09-23T23:03:50.712Z,1.60
2018-09-23T23:06:17.945Z,1.60
2018-09-23T23:08:45.141Z,1.60
2018-09-23T23:11:12.470Z,1.80
2018-09-23T23:13:39.659Z,1.40
2018-09-23T23:16:06.854Z,1.40
2018-09-23T23:18:34.068Z,1.60
2018-09-23T23:21:01.271Z,1.53
2018-09-23T23:23:28.448Z,1.40
2018-09-23T23:25:55.685Z,1.70
2018-09-23T23:28:23.126Z,1.60
2018-09-23T23:30:50.384Z,1.47
2018-09-23T23:33:17.570Z,1.70
2018-09-23T23:35:44.748Z,1.70
2018-09-23T23:38:11.997Z,1.33
2018-09-23T23:40:39.190Z,1.60
2018-09-23T23:43:06.551Z,1.67
2018-09-23T23:45:33.901Z,1.60
2018-09-23T23:48:01.261Z,1.47
2018-09-23T23:50:28.594Z,1.60
2018-09-23T23:52:56.175Z,1.50
2018-09-23T23:55:23.449Z,1.50
2018-09-23T23:57:50.703Z,1.40
